createdAt,value
2019-03-01T00:01:31.080Z,3.10
2019-03-01T00:04:10.335Z,2.90
2019-03-01T00:06:53.621Z,2.77
2019-03-01T00:09:58.253Z,3.10
2019-03-01T00:13:27.368Z,3.23
2019-03-01T00:16:53.177Z,3.20
2019-03-01T00:20:31.433Z,3.57
2019-03-01T00:24:03.343Z,3.47
2019-03-01T00:26:50.373Z,3.60
2019-03-01T00:29:59.178Z,3.63
2019-03-01T00:33:10.696Z,4.03
2019-03-01T00:36:35.532Z,3.87
2019-03-01T00:39:30.520Z,5.10
2019-03-01T00:42:52.180Z,4.73
2019-03-01T00:45:24.194Z,4.53
2019-03-01T00:47:56.158Z,4.70
2019-03-01T00:50:28.143Z,5.10
2019-03-01T00:53:00.092Z,4.93
2019-03-01T00:55:32.058Z,5.03
2019-03-01T00:58:04.039Z,5.10
2019-03-01T01:00:39.958Z,5.13
2019-03-01T01:03:11.913Z,5.03
2019-03-01T01:05:44.132Z,5.00
2019-03-01T01:08:16.135Z,5.40
2019-03-01T01:10:48.088Z,5.53
2019-03-01T01:13:20.070Z,5.83
2019-03-01T01:15:52.078Z,5.10
2019-03-01T01:18:24.044Z,5.40
2019-03-01T01:20:56.044Z,5.73
2019-03-01T01:23:27.985Z,5.23
2019-03-01T01:25:59.989Z,5.50
2019-03-01T01:28:31.940Z,5.50
2019-03-01T01:31:03.912Z,4.90
2019-03-01T01:33:35.879Z,5.10
2019-03-01T01:36:07.868Z,5.47
2019-03-01T01:38:39.841Z,5.20
2019-03-01T01:41:11.837Z,4.50
2019-03-01T01:43:43.815Z,5.10
2019-03-01T01:46:15.797Z,5.00
2019-03-01T01:48:47.770Z,5.13
2019-03-01T01:51:19.751Z,5.10
2019-03-01T01:53:51.704Z,4.53
2019-03-01T01:56:23.683Z,4.90
2019-03-01T01:58:55.663Z,4.90
2019-03-01T02:01:27.637Z,4.30
2019-03-01T02:03:59.599Z,4.73
2019-03-01T02:06:31.580Z,4.73
2019-03-01T02:09:15.595Z,4.83
2019-03-01T02:11:47.580Z,5.17
2019-03-01T02:14:19.558Z,5.13
2019-03-01T02:16:56.673Z,5.23
2019-03-01T02:19:28.602Z,4.70
2019-03-01T02:22:00.602Z,4.83
2019-03-01T02:24:32.561Z,5.07
2019-03-01T02:27:33.152Z,4.57
2019-03-01T02:30:12.388Z,4.70
2019-03-01T02:32:46.010Z,5.27
2019-03-01T02:35:25.192Z,5.00
2019-03-01T02:37:57.189Z,4.87
2019-03-01T02:40:29.182Z,4.40
2019-03-01T02:43:01.215Z,4.87
2019-03-01T02:45:33.195Z,4.77
2019-03-01T02:48:05.210Z,5.17
2019-03-01T02:50:37.153Z,5.50
2019-03-01T02:53:09.157Z,4.57
2019-03-01T02:55:41.152Z,5.10
2019-03-01T02:58:13.119Z,5.20
2019-03-01T03:00:45.087Z,5.27
2019-03-01T03:03:17.084Z,5.03
2019-03-01T03:06:07.457Z,4.87
2019-03-01T03:08:39.625Z,4.40
2019-03-01T03:11:11.613Z,4.43
2019-03-01T03:13:43.568Z,4.40
2019-03-01T03:16:15.523Z,4.70
2019-03-01T03:18:47.506Z,4.60
2019-03-01T03:21:19.473Z,4.33
2019-03-01T03:23:51.471Z,4.53
2019-03-01T03:26:23.421Z,4.43
2019-03-01T03:28:55.399Z,4.73
2019-03-01T03:31:28.456Z,4.33
2019-03-01T03:34:00.480Z,5.00
2019-03-01T03:36:32.419Z,5.07
2019-03-01T03:39:05.592Z,5.37
2019-03-01T03:41:37.545Z,4.70
2019-03-01T03:44:09.536Z,4.77
2019-03-01T03:46:41.496Z,5.30
2019-03-01T03:49:13.468Z,5.07
2019-03-01T03:51:45.459Z,4.70
2019-03-01T03:54:17.414Z,5.60
2019-03-01T03:56:49.397Z,5.00
2019-03-01T03:59:21.478Z,5.00
2019-03-01T04:01:53.478Z,5.30
2019-03-01T04:04:25.450Z,5.43
2019-03-01T04:06:57.410Z,5.13
2019-03-01T04:09:29.362Z,5.57
2019-03-01T04:12:01.370Z,5.20
2019-03-01T04:14:33.324Z,5.33
2019-03-01T04:17:05.304Z,5.37
2019-03-01T04:19:37.255Z,5.50
2019-03-01T04:22:09.233Z,5.03
2019-03-01T04:24:41.185Z,5.07
2019-03-01T04:27:13.182Z,5.20
2019-03-01T04:29:45.137Z,4.90
2019-03-01T04:32:17.118Z,4.57
2019-03-01T04:34:49.075Z,5.40
2019-03-01T04:37:21.084Z,5.00
2019-03-01T04:39:53.023Z,4.70
2019-03-01T04:42:25.013Z,4.57
2019-03-01T04:44:56.965Z,4.53
2019-03-01T04:47:28.948Z,4.77
2019-03-01T04:50:00.914Z,5.37
2019-03-01T04:52:36.457Z,4.57
2019-03-01T04:55:13.616Z,4.80
2019-03-01T04:57:46.681Z,5.00
2019-03-01T05:00:20.201Z,4.33
2019-03-01T05:02:52.216Z,4.27
2019-03-01T05:05:24.217Z,4.60
2019-03-01T05:07:56.206Z,4.37
2019-03-01T05:10:28.188Z,4.33
2019-03-01T05:13:00.199Z,4.43
2019-03-01T05:15:32.181Z,4.17
2019-03-01T05:18:04.183Z,4.00
2019-03-01T05:20:36.177Z,4.27
2019-03-01T05:23:08.265Z,4.20
2019-03-01T05:25:40.253Z,4.27
2019-03-01T05:28:12.261Z,4.07
2019-03-01T05:30:44.242Z,3.47
2019-03-01T05:33:16.225Z,3.60
2019-03-01T05:35:48.201Z,3.67
2019-03-01T05:38:22.015Z,3.23
2019-03-01T05:40:54.076Z,3.43
2019-03-01T05:43:26.089Z,3.80
2019-03-01T05:45:58.065Z,4.07
2019-03-01T05:48:30.071Z,4.17
2019-03-01T05:51:02.033Z,4.13
2019-03-01T05:53:34.017Z,4.40
2019-03-01T05:56:05.968Z,4.57
2019-03-01T05:58:46.733Z,5.30
2019-03-01T06:01:26.064Z,5.17
2019-03-01T06:04:19.623Z,5.07
2019-03-01T06:07:29.565Z,5.27
2019-03-01T06:10:46.320Z,4.43
2019-03-01T06:14:02.963Z,4.80
2019-03-01T06:17:23.002Z,4.57
2019-03-01T06:20:16.141Z,5.33
2019-03-01T06:23:17.406Z,6.13
2019-03-01T06:26:06.146Z,5.43
2019-03-01T06:29:07.777Z,5.10
2019-03-01T06:32:30.900Z,5.33
2019-03-01T06:35:40.421Z,5.40
2019-03-01T06:38:54.188Z,5.47
2019-03-01T06:41:58.567Z,3.40
2019-03-01T06:45:09.423Z,3.27
2019-03-01T06:47:47.356Z,2.70
2019-03-01T06:50:38.891Z,2.43
2019-03-01T06:53:10.890Z,2.40
2019-03-01T06:56:03.158Z,2.20
2019-03-01T06:58:37.621Z,2.30
2019-03-01T07:01:11.875Z,2.53
2019-03-01T07:06:28.950Z,2.50
2019-03-01T07:09:01.000Z,2.60
2019-03-01T07:11:32.970Z,2.60
2019-03-01T07:14:05.035Z,2.33
2019-03-01T07:16:36.998Z,2.13
2019-03-01T07:19:08.992Z,2.77
2019-03-01T07:21:40.966Z,2.67
2019-03-01T07:24:13.050Z,3.17
2019-03-01T07:26:45.075Z,2.77
2019-03-01T07:29:17.096Z,2.80
2019-03-01T07:31:49.064Z,2.93
2019-03-01T07:34:21.070Z,2.93
2019-03-01T07:36:53.114Z,3.03
2019-03-01T07:39:25.133Z,2.80
2019-03-01T07:41:57.128Z,2.97
2019-03-01T07:44:29.141Z,2.93
2019-03-01T07:47:01.139Z,2.87
2019-03-01T07:49:33.170Z,3.37
2019-03-01T07:52:05.863Z,3.70
2019-03-01T07:54:39.042Z,3.60
2019-03-01T07:57:14.707Z,3.87
2019-03-01T07:59:45.353Z,4.23
2019-03-01T08:02:17.325Z,3.83
2019-03-01T08:04:49.310Z,4.10
2019-03-01T08:07:23.589Z,3.90
2019-03-01T08:09:55.203Z,3.50
2019-03-01T08:12:27.189Z,4.03
2019-03-01T08:14:59.218Z,4.30
2019-03-01T08:17:31.622Z,4.70
2019-03-01T08:20:07.536Z,4.37
2019-03-01T08:22:48.103Z,3.70
2019-03-01T08:25:13.443Z,4.13
2019-03-01T08:27:46.475Z,4.00
2019-03-01T08:30:19.415Z,4.17
2019-03-01T08:32:51.368Z,4.20
2019-03-01T08:35:42.948Z,4.83
2019-03-01T08:38:14.933Z,4.20
2019-03-01T08:40:49.929Z,3.90
2019-03-01T08:43:20.890Z,3.90
2019-03-01T08:45:52.892Z,3.13
2019-03-01T08:48:24.890Z,3.37
2019-03-01T08:50:56.911Z,3.60
2019-03-01T08:53:28.887Z,2.73
2019-03-01T08:58:52.502Z,10.97
2019-03-01T09:01:24.883Z,6.27
2019-03-01T09:04:02.676Z,4.13
2019-03-01T09:06:34.702Z,2.87
2019-03-01T09:09:08.646Z,2.60
2019-03-01T09:11:41.695Z,3.30
2019-03-01T09:14:15.105Z,3.00
2019-03-01T09:16:47.174Z,3.03
2019-03-01T09:19:22.392Z,2.80
2019-03-01T09:21:53.108Z,3.20
2019-03-01T09:24:25.821Z,2.90
2019-03-01T09:26:59.447Z,3.10
2019-03-01T09:29:40.996Z,2.73
2019-03-01T09:32:05.354Z,2.90
2019-03-01T09:34:37.358Z,2.80
2019-03-01T09:37:09.473Z,2.70
2019-03-01T09:39:41.479Z,2.57
2019-03-01T09:42:15.595Z,2.87
2019-03-01T09:44:47.461Z,3.07
2019-03-01T09:47:19.504Z,3.27
2019-03-01T09:49:51.513Z,3.47
2019-03-01T09:52:24.526Z,10.70
2019-03-01T09:54:57.442Z,5.30
2019-03-01T09:57:29.438Z,3.90
2019-03-01T10:00:01.478Z,3.57
2019-03-01T10:02:33.454Z,3.17
2019-03-01T10:05:07.630Z,3.00
2019-03-01T10:07:39.670Z,3.00
2019-03-01T10:10:12.345Z,2.70
2019-03-01T10:12:44.440Z,2.50
2019-03-01T10:15:16.500Z,2.60
2019-03-01T10:17:48.530Z,2.50
2019-03-01T10:20:20.586Z,2.40
2019-03-01T10:22:52.636Z,2.53
2019-03-01T10:25:24.642Z,2.70
2019-03-01T10:27:56.649Z,2.63
2019-03-01T10:30:28.651Z,2.47
2019-03-01T10:33:00.652Z,2.50
2019-03-01T10:35:32.687Z,2.60
2019-03-01T10:38:04.680Z,2.50
2019-03-01T10:40:36.752Z,2.70
2019-03-01T10:43:08.759Z,2.40
2019-03-01T10:45:40.772Z,2.13
2019-03-01T10:48:12.797Z,2.43
2019-03-01T10:50:44.890Z,2.07
2019-03-01T10:53:16.870Z,2.50
2019-03-01T10:55:48.906Z,2.50
2019-03-01T10:58:20.937Z,2.40
2019-03-01T11:00:52.982Z,2.50
2019-03-01T11:03:24.965Z,2.27
2019-03-01T11:05:56.983Z,2.50
2019-03-01T11:08:29.015Z,2.30
2019-03-01T11:11:01.156Z,2.73
2019-03-01T11:13:33.162Z,2.77
2019-03-01T11:16:05.204Z,2.40
2019-03-01T11:18:37.213Z,2.20
2019-03-01T11:21:09.280Z,2.50
2019-03-01T11:23:41.325Z,2.80
2019-03-01T11:26:13.303Z,2.80
2019-03-01T11:28:52.401Z,2.63
2019-03-01T11:31:24.401Z,2.53
2019-03-01T11:33:56.402Z,2.33
2019-03-01T11:36:28.391Z,3.10
2019-03-01T11:39:00.450Z,3.00
2019-03-01T11:41:32.461Z,2.60
2019-03-01T11:44:04.585Z,2.93
2019-03-01T11:46:36.662Z,3.13
2019-03-01T11:49:08.685Z,3.47
2019-03-01T11:51:40.686Z,2.97
2019-03-01T11:54:12.839Z,3.17
2019-03-01T11:56:44.900Z,2.60
2019-03-01T11:59:16.966Z,2.23
2019-03-01T12:01:48.995Z,2.57
2019-03-01T12:04:21.071Z,2.63
2019-03-01T12:06:53.105Z,2.87
2019-03-01T12:09:25.125Z,2.90
2019-03-01T12:11:57.219Z,3.37
2019-03-01T12:14:29.265Z,3.30
2019-03-01T12:17:01.356Z,2.57
2019-03-01T12:19:33.399Z,3.20
2019-03-01T12:22:05.380Z,3.00
2019-03-01T12:24:37.406Z,3.10
2019-03-01T12:27:09.423Z,2.90
2019-03-01T12:29:41.468Z,2.93
2019-03-01T12:32:13.478Z,3.27
2019-03-01T12:34:45.515Z,2.80
2019-03-01T12:37:17.515Z,3.00
2019-03-01T12:39:49.582Z,3.23
2019-03-01T12:42:21.571Z,2.90
2019-03-01T12:44:53.626Z,3.37
2019-03-01T12:47:25.672Z,3.70
2019-03-01T12:49:57.702Z,3.80
2019-03-01T12:52:29.766Z,4.53
2019-03-01T12:55:01.872Z,4.50
2019-03-01T12:57:33.927Z,5.20
2019-03-01T13:00:09.913Z,5.27
2019-03-01T13:02:41.958Z,5.47
2019-03-01T13:05:14.001Z,10.80
2019-03-01T13:07:46.068Z,7.93
2019-03-01T13:10:23.056Z,7.20
2019-03-01T13:12:55.130Z,7.23
2019-03-01T13:15:27.172Z,6.40
2019-03-01T13:17:59.211Z,6.43
2019-03-01T13:20:33.884Z,7.17
2019-03-01T13:23:06.204Z,6.90
2019-03-01T13:25:39.167Z,7.73
2019-03-01T13:28:11.185Z,7.10
2019-03-01T13:30:45.417Z,7.10
2019-03-01T13:33:17.376Z,7.73
2019-03-01T13:36:09.539Z,7.77
2019-03-01T13:38:41.585Z,7.20
2019-03-01T13:41:13.616Z,8.13
2019-03-01T13:43:45.628Z,8.63
2019-03-01T13:46:17.653Z,7.83
2019-03-01T13:48:50.860Z,7.80
2019-03-01T13:51:23.734Z,7.87
2019-03-01T13:53:55.711Z,8.07
2019-03-01T13:56:27.739Z,7.60
2019-03-01T13:59:02.938Z,7.80
2019-03-01T14:01:33.868Z,7.83
2019-03-01T14:07:05.864Z,9.27
2019-03-01T14:09:37.928Z,8.60
2019-03-01T14:12:10.020Z,11.57
2019-03-01T14:14:42.056Z,9.23
2019-03-01T14:17:14.181Z,8.53
2019-03-01T14:19:46.216Z,9.37
2019-03-01T14:22:18.267Z,8.27
2019-03-01T14:24:50.309Z,8.47
2019-03-01T14:27:22.323Z,8.27
2019-03-01T14:29:54.426Z,8.03
2019-03-01T14:32:26.435Z,8.10
2019-03-01T14:34:58.463Z,7.73
2019-03-01T14:37:30.669Z,8.23
2019-03-01T14:40:03.047Z,8.70
2019-03-01T14:42:35.110Z,8.50
2019-03-01T14:45:10.914Z,7.97
2019-03-01T14:47:42.958Z,7.37
2019-03-01T14:50:16.282Z,8.10
2019-03-01T14:52:48.330Z,8.87
2019-03-01T14:55:24.014Z,8.40
2019-03-01T14:58:05.419Z,7.33
2019-03-01T15:01:02.044Z,7.70
2019-03-01T15:04:15.377Z,7.90
2019-03-01T15:06:47.416Z,8.47
2019-03-01T15:09:20.417Z,10.87
2019-03-01T15:11:53.435Z,10.33
2019-03-01T15:14:25.486Z,7.37
2019-03-01T15:17:18.322Z,7.33
2019-03-01T15:19:50.909Z,6.93
2019-03-01T15:22:22.938Z,7.77
2019-03-01T15:24:54.984Z,7.33
2019-03-01T15:27:26.976Z,7.13
2019-03-01T15:29:59.038Z,7.90
2019-03-01T15:32:34.829Z,8.00
2019-03-01T15:35:05.112Z,7.50
2019-03-01T15:37:37.339Z,7.97
2019-03-01T15:40:11.412Z,8.87
2019-03-01T15:42:43.437Z,9.07
2019-03-01T15:45:16.899Z,7.93
2019-03-01T15:47:50.393Z,9.77
2019-03-01T15:50:23.663Z,11.77
2019-03-01T15:52:56.522Z,10.87
2019-03-01T15:55:29.667Z,10.87
2019-03-01T15:58:01.847Z,10.53
2019-03-01T16:00:33.863Z,9.70
2019-03-01T16:03:05.834Z,10.40
2019-03-01T16:05:38.290Z,10.93
2019-03-01T16:08:10.474Z,10.10
2019-03-01T16:10:42.472Z,9.23
2019-03-01T16:13:14.536Z,9.43
2019-03-01T16:15:46.567Z,9.47
2019-03-01T16:18:18.590Z,10.13
2019-03-01T16:20:50.621Z,10.33
2019-03-01T16:23:22.645Z,10.80
2019-03-01T16:25:56.405Z,10.50
2019-03-01T16:28:31.151Z,10.50
2019-03-01T16:31:02.624Z,10.83
2019-03-01T16:33:34.739Z,10.63
2019-03-01T16:36:13.994Z,11.00
2019-03-01T16:38:48.693Z,11.57
2019-03-01T16:41:20.124Z,11.87
2019-03-01T16:43:52.205Z,11.73
2019-03-01T16:46:24.180Z,11.23
2019-03-01T16:48:56.219Z,12.97
2019-03-01T16:51:28.288Z,12.47
2019-03-01T16:54:00.407Z,13.97
2019-03-01T16:56:34.674Z,13.40
2019-03-01T16:59:07.299Z,13.87
2019-03-01T17:01:40.734Z,12.90
2019-03-01T17:04:13.020Z,13.30
2019-03-01T17:06:45.531Z,14.93
2019-03-01T17:09:18.962Z,13.43
2019-03-01T17:11:50.986Z,12.17
2019-03-01T17:14:23.019Z,12.67
2019-03-01T17:16:56.422Z,12.53
2019-03-01T17:19:29.119Z,13.73
2019-03-01T17:22:01.121Z,13.27
2019-03-01T17:24:33.174Z,14.50
2019-03-01T17:27:05.580Z,15.53
2019-03-01T17:29:39.901Z,15.27
2019-03-01T17:32:11.995Z,16.37
2019-03-01T17:34:44.070Z,14.60
2019-03-01T17:37:16.124Z,16.60
2019-03-01T17:39:48.254Z,15.13
2019-03-01T17:42:20.750Z,15.23
2019-03-01T17:44:53.670Z,16.20
2019-03-01T17:47:25.752Z,16.93
2019-03-01T17:49:57.872Z,23.27
2019-03-01T17:52:30.503Z,17.77
2019-03-01T17:55:03.929Z,16.77
2019-03-01T17:57:35.990Z,18.83
2019-03-01T18:00:11.161Z,19.23
2019-03-01T18:02:43.217Z,20.07
2019-03-01T18:05:15.785Z,22.77
2019-03-01T18:07:49.159Z,23.13
2019-03-01T18:10:21.332Z,24.70
2019-03-01T18:12:56.177Z,25.93
2019-03-01T18:15:27.310Z,33.43
2019-03-01T18:17:59.399Z,29.33
2019-03-01T18:20:33.916Z,31.77
2019-03-01T18:23:05.388Z,24.83
2019-03-01T18:25:38.825Z,27.43
2019-03-01T18:28:10.833Z,27.10
2019-03-01T18:30:42.803Z,24.50
2019-03-01T18:33:16.890Z,24.20
2019-03-01T18:35:49.006Z,25.30
2019-03-01T18:38:21.076Z,25.47
2019-03-01T18:40:53.104Z,25.20
2019-03-01T18:43:25.127Z,23.47
2019-03-01T18:45:57.135Z,25.90
2019-03-01T18:48:29.655Z,25.07
2019-03-01T18:51:03.555Z,25.40
2019-03-01T18:53:35.642Z,27.27
2019-03-01T18:59:56.426Z,27.27
2019-03-01T19:02:27.710Z,29.23
2019-03-01T19:05:04.212Z,27.20
2019-03-01T19:07:34.443Z,29.93
2019-03-01T19:10:07.062Z,29.80
2019-03-01T19:12:39.110Z,33.00
2019-03-01T19:15:12.093Z,32.37
2019-03-01T19:17:45.311Z,33.13
2019-03-01T19:20:22.592Z,34.53
2019-03-01T19:22:54.637Z,34.00
2019-03-01T19:25:26.760Z,40.20
2019-03-01T19:27:58.848Z,34.27
2019-03-01T19:30:30.933Z,32.73
2019-03-01T19:33:03.439Z,32.20
2019-03-01T19:35:37.402Z,32.00
2019-03-01T19:38:09.438Z,30.90
2019-03-01T19:40:43.387Z,30.37
2019-03-01T19:43:15.425Z,28.40
2019-03-01T19:45:47.501Z,28.27
2019-03-01T19:48:19.604Z,28.97
2019-03-01T19:50:51.668Z,29.53
2019-03-01T19:53:25.478Z,29.67
2019-03-01T19:55:57.738Z,29.93
2019-03-01T19:58:29.789Z,29.70
2019-03-01T20:01:01.858Z,30.77
2019-03-01T20:03:33.906Z,32.13
2019-03-01T20:06:07.863Z,32.20
2019-03-01T20:08:40.233Z,31.77
2019-03-01T20:11:12.338Z,32.10
2019-03-01T20:13:44.368Z,34.50
2019-03-01T20:16:16.484Z,32.87
2019-03-01T20:18:48.580Z,33.00
2019-03-01T20:21:20.669Z,33.67
2019-03-01T20:23:52.690Z,33.70
2019-03-01T20:26:26.725Z,36.93
2019-03-01T20:28:58.752Z,35.07
2019-03-01T20:31:30.792Z,37.60
2019-03-01T20:34:02.959Z,55.00
2019-03-01T20:36:34.996Z,52.83
2019-03-01T20:39:07.062Z,40.73
2019-03-01T20:41:40.146Z,52.27
2019-03-01T20:44:14.745Z,43.73
2019-03-01T20:46:47.146Z,68.97
2019-03-01T20:49:19.222Z,54.27
2019-03-01T20:51:52.391Z,40.63
2019-03-01T20:54:25.850Z,38.90
2019-03-01T20:56:58.581Z,36.00
2019-03-01T20:59:30.659Z,40.43
2019-03-01T21:02:02.692Z,39.23
2019-03-01T21:04:36.668Z,39.93
2019-03-01T21:07:08.741Z,40.27
2019-03-01T21:09:41.319Z,37.23
2019-03-01T21:12:13.446Z,39.83
2019-03-01T21:14:45.473Z,36.37
2019-03-01T21:17:20.377Z,36.77
2019-03-01T21:19:51.587Z,36.97
2019-03-01T21:22:23.897Z,38.63
2019-03-01T21:24:59.287Z,37.77
2019-03-01T21:27:30.982Z,40.07
2019-03-01T21:30:03.563Z,39.33
2019-03-01T21:32:37.138Z,37.40
2019-03-01T21:35:10.498Z,38.03
2019-03-01T21:37:43.557Z,38.33
2019-03-01T21:40:15.637Z,38.60
2019-03-01T21:42:47.719Z,39.03
2019-03-01T21:45:21.490Z,39.50
2019-03-01T21:47:53.854Z,36.00
2019-03-01T21:50:25.947Z,40.80
2019-03-01T21:52:57.913Z,38.93
2019-03-01T21:55:29.981Z,41.57
2019-03-01T21:58:03.449Z,41.13
2019-03-01T22:00:36.137Z,41.40
2019-03-01T22:03:08.177Z,40.17
2019-03-01T22:05:40.246Z,41.90
2019-03-01T22:08:12.975Z,38.13
2019-03-01T22:10:47.554Z,39.37
2019-03-01T22:13:19.595Z,39.53
2019-03-01T22:15:51.625Z,39.47
2019-03-01T22:18:24.858Z,40.53
2019-03-01T22:20:57.314Z,38.93
2019-03-01T22:23:29.332Z,37.17
2019-03-01T22:26:01.527Z,37.47
2019-03-01T22:28:36.211Z,36.03
2019-03-01T22:31:07.542Z,38.03
2019-03-01T22:33:39.573Z,34.20
2019-03-01T22:36:11.614Z,37.87
2019-03-01T22:38:47.397Z,36.93
2019-03-01T22:41:19.575Z,36.87
2019-03-01T22:43:51.567Z,34.90
2019-03-01T22:46:24.836Z,37.10
2019-03-01T22:49:00.357Z,34.30
2019-03-01T22:51:32.354Z,36.67
2019-03-01T22:54:04.523Z,33.43
2019-03-01T22:56:36.683Z,34.70
2019-03-01T22:59:11.686Z,34.73
2019-03-01T23:01:47.917Z,34.63
2019-03-01T23:04:21.702Z,35.67
2019-03-01T23:06:53.741Z,36.47
2019-03-01T23:09:27.304Z,37.63
2019-03-01T23:12:01.070Z,33.73
2019-03-01T23:14:34.291Z,35.93
2019-03-01T23:17:06.387Z,35.93
2019-03-01T23:19:39.739Z,35.73
2019-03-01T23:22:11.970Z,37.07
2019-03-01T23:24:43.999Z,37.37
2019-03-01T23:27:16.188Z,86.73
2019-03-01T23:29:50.963Z,44.73
2019-03-01T23:32:22.591Z,37.40
2019-03-01T23:34:54.649Z,36.47
2019-03-01T23:37:26.673Z,36.03
2019-03-01T23:40:00.938Z,43.97
2019-03-01T23:42:33.716Z,40.00
2019-03-01T23:45:06.814Z,35.17
2019-03-01T23:47:39.551Z,52.80
2019-03-01T23:50:11.585Z,65.63
2019-03-01T23:52:43.895Z,53.50
2019-03-01T23:55:18.979Z,35.77
2019-03-01T23:57:49.795Z,34.30
